createdAt,value
2018-01-30T00:00:59.820Z,95423.73
2018-01-30T00:03:27.338Z,95418.53
2018-01-30T00:20:19.037Z,95412.61
2018-01-30T00:31:24.813Z,95419.46
2018-01-30T00:34:11.623Z,95411.30
2018-01-30T00:39:32.059Z,95400.45
2018-01-30T00:41:59.652Z,95398.30
2018-01-30T00:44:27.248Z,95401.38
2018-01-30T00:46:54.813Z,95396.42
2018-01-30T00:49:23.020Z,95398.36
2018-01-30T00:51:50.660Z,95403.06
2018-01-30T00:54:18.297Z,95393.13
2018-01-30T00:56:45.887Z,95389.98
2018-01-30T00:59:13.536Z,95385.84
2018-01-30T01:01:41.202Z,95384.30
2018-01-30T01:04:08.722Z,95386.78
2018-01-30T01:06:36.465Z,95380.97
2018-01-30T01:09:04.086Z,95380.79
2018-01-30T01:11:31.676Z,95381.92
2018-01-30T01:13:59.197Z,95382.51
2018-01-30T01:16:26.754Z,95371.47
2018-01-30T01:18:54.345Z,95373.92
2018-01-30T01:21:21.940Z,95374.52
2018-01-30T01:23:49.543Z,95366.50
2018-01-30T01:26:17.066Z,95380.28
2018-01-30T01:28:44.655Z,95372.22
2018-01-30T01:31:12.336Z,95360.06
2018-01-30T01:33:39.928Z,95365.91
2018-01-30T01:36:07.538Z,95354.61
2018-01-30T01:38:35.165Z,95350.91
2018-01-30T01:41:02.683Z,95353.02
2018-01-30T01:43:30.328Z,95343.47
2018-01-30T01:45:58.013Z,95340.22
2018-01-30T01:48:25.609Z,95345.94
2018-01-30T01:50:53.130Z,95332.61
2018-01-30T01:53:20.761Z,95339.22
2018-01-30T01:55:48.284Z,95336.14
2018-01-30T01:58:15.926Z,95329.27
2018-01-30T02:00:43.623Z,95325.12
2018-01-30T02:03:11.270Z,95337.20
2018-01-30T02:05:38.866Z,95317.44
2018-01-30T02:08:06.768Z,95316.78
2018-01-30T02:10:34.372Z,95311.31
2018-01-30T02:13:01.958Z,95299.52
2018-01-30T02:15:29.592Z,95303.67
2018-01-30T02:17:57.236Z,95302.01
2018-01-30T02:20:24.808Z,95305.67
2018-01-30T02:22:52.366Z,95291.86
2018-01-30T02:25:20.016Z,95286.53
2018-01-30T02:27:47.608Z,95292.45
2018-01-30T02:30:15.430Z,95288.89
2018-01-30T02:32:43.016Z,95291.73
2018-01-30T02:35:10.534Z,95281.13
2018-01-30T02:37:38.236Z,95279.58
2018-01-30T02:40:05.825Z,95281.03
2018-01-30T02:42:33.477Z,95277.70
2018-01-30T02:45:01.100Z,95275.14
2018-01-30T02:47:28.622Z,95275.45
2018-01-30T02:49:56.212Z,95270.61
2018-01-30T02:52:23.895Z,95271.83
2018-01-30T02:54:51.551Z,95271.55
2018-01-30T02:57:19.197Z,95267.95
2018-01-30T02:59:46.880Z,95257.63
2018-01-30T03:02:14.406Z,95271.38
2018-01-30T03:04:41.996Z,95266.11
2018-01-30T03:07:09.554Z,95271.93
2018-01-30T03:09:37.348Z,95268.81
2018-01-30T03:12:05.044Z,95266.53
2018-01-30T03:14:32.607Z,95267.42
2018-01-30T03:17:00.204Z,95267.33
2018-01-30T03:19:27.848Z,95265.45
2018-01-30T03:21:55.482Z,95266.08
2018-01-30T03:24:23.087Z,95254.83
2018-01-30T03:26:50.728Z,95258.08
2018-01-30T03:29:18.377Z,95253.55
2018-01-30T03:31:45.918Z,95256.59
2018-01-30T03:34:13.496Z,95261.44
2018-01-30T03:36:41.328Z,95248.98
2018-01-30T03:39:08.852Z,95256.98
2018-01-30T03:41:36.494Z,95267.87
2018-01-30T03:44:04.047Z,95249.64
2018-01-30T03:46:31.572Z,95254.66
2018-01-30T03:48:59.155Z,95246.84
2018-01-30T03:51:26.780Z,95256.49
2018-01-30T03:53:54.300Z,95249.43
2018-01-30T03:56:21.895Z,95254.83
2018-01-30T03:58:49.516Z,95246.48
2018-01-30T04:01:17.124Z,95247.42
2018-01-30T04:03:44.647Z,95249.84
2018-01-30T04:06:12.331Z,95250.78
2018-01-30T04:08:39.979Z,95246.00
2018-01-30T04:11:07.624Z,95248.43
2018-01-30T04:13:35.182Z,95244.28
2018-01-30T04:16:02.766Z,95246.84
2018-01-30T04:18:30.381Z,95236.01
2018-01-30T04:20:57.942Z,95244.31
2018-01-30T04:23:25.462Z,95235.38
2018-01-30T04:25:53.048Z,95239.36
2018-01-30T04:28:20.680Z,95238.48
2018-01-30T04:30:48.198Z,95236.90
2018-01-30T04:33:15.719Z,95246.14
2018-01-30T04:35:43.396Z,95243.94
2018-01-30T04:38:10.985Z,95247.19
2018-01-30T04:40:38.632Z,95248.16
2018-01-30T04:43:06.303Z,95240.85
2018-01-30T04:45:33.819Z,95248.33
2018-01-30T04:48:01.402Z,95257.08
2018-01-30T04:50:29.020Z,95252.48
2018-01-30T04:52:56.543Z,95256.18
2018-01-30T04:55:24.180Z,95257.88
2018-01-30T04:57:51.872Z,95252.03
2018-01-30T05:00:19.532Z,95252.72
2018-01-30T05:02:47.186Z,95253.41
2018-01-30T05:05:14.827Z,95260.78
2018-01-30T05:07:42.361Z,95254.34
2018-01-30T05:10:09.959Z,95249.02
2018-01-30T05:12:37.894Z,95251.30
2018-01-30T05:15:05.404Z,95253.62
2018-01-30T05:17:33.056Z,95251.19
2018-01-30T05:20:00.714Z,95248.80
2018-01-30T05:22:28.372Z,95251.36
2018-01-30T05:24:55.960Z,95251.16
2018-01-30T05:27:23.599Z,95260.81
2018-01-30T05:29:51.194Z,95251.72
2018-01-30T05:32:18.844Z,95262.41
2018-01-30T05:34:46.541Z,95262.79
2018-01-30T05:37:14.206Z,95266.70
2018-01-30T05:39:41.780Z,95265.10
2018-01-30T05:42:09.400Z,95268.01
2018-01-30T05:44:36.987Z,95264.47
2018-01-30T05:47:04.577Z,95264.99
2018-01-30T05:49:32.164Z,95271.98
2018-01-30T05:51:59.690Z,95273.55
2018-01-30T05:54:27.332Z,95272.92
2018-01-30T05:56:54.846Z,95273.00
2018-01-30T05:59:22.438Z,95273.83
2018-01-30T06:01:50.097Z,95282.45
2018-01-30T06:04:17.746Z,95282.34
2018-01-30T06:06:45.340Z,95281.96
2018-01-30T06:09:12.972Z,95276.94
2018-01-30T06:11:40.555Z,95276.97
2018-01-30T06:14:08.476Z,95277.90
2018-01-30T06:16:36.059Z,95274.08
2018-01-30T06:19:03.724Z,95278.77
2018-01-30T06:21:31.320Z,95275.92
2018-01-30T06:23:59.012Z,95274.80
2018-01-30T06:26:26.668Z,95278.07
2018-01-30T06:28:54.265Z,95273.36
2018-01-30T06:31:21.957Z,95270.20
2018-01-30T06:33:49.600Z,95266.29
2018-01-30T06:36:17.142Z,95265.28
2018-01-30T06:38:44.776Z,95271.58
2018-01-30T06:41:12.368Z,95271.44
2018-01-30T06:43:40.017Z,95266.55
2018-01-30T06:46:07.645Z,95275.72
2018-01-30T06:48:35.250Z,95266.94
2018-01-30T06:51:02.844Z,95270.42
2018-01-30T06:53:30.507Z,95263.72
2018-01-30T06:55:58.042Z,95273.69
2018-01-30T06:58:25.628Z,95271.66
2018-01-30T07:00:53.321Z,95260.77
2018-01-30T07:03:20.980Z,95259.11
2018-01-30T07:05:48.522Z,95260.02
2018-01-30T07:08:16.216Z,95254.06
2018-01-30T07:10:43.860Z,95251.23
2018-01-30T07:13:11.454Z,95249.72
2018-01-30T07:15:39.199Z,95246.03
2018-01-30T07:18:06.944Z,95240.44
2018-01-30T07:20:34.479Z,95241.42
2018-01-30T07:23:02.165Z,95241.00
2018-01-30T07:25:29.756Z,95235.75
2018-01-30T07:27:57.349Z,95231.14
2018-01-30T07:30:25.159Z,95234.38
2018-01-30T07:32:52.747Z,95240.07
2018-01-30T07:35:20.275Z,95229.41
2018-01-30T07:37:48.103Z,95226.69
2018-01-30T07:40:15.627Z,95233.21
2018-01-30T07:42:43.228Z,95232.89
2018-01-30T07:45:10.897Z,95235.64
2018-01-30T07:47:38.686Z,95233.74
2018-01-30T07:50:06.756Z,95237.22
2018-01-30T07:52:34.619Z,95231.63
2018-01-30T07:55:02.220Z,95234.16
2018-01-30T07:57:29.738Z,95238.77
2018-01-30T07:59:57.433Z,95231.31
2018-01-30T08:02:25.028Z,95231.16
2018-01-30T08:04:52.616Z,95231.04
2018-01-30T08:07:20.313Z,95236.39
2018-01-30T08:09:47.876Z,95236.12
2018-01-30T08:12:15.461Z,95238.17
2018-01-30T08:14:43.018Z,95233.09
2018-01-30T08:17:10.609Z,95233.27
2018-01-30T08:19:38.134Z,95223.41
2018-01-30T08:22:05.761Z,95218.77
2018-01-30T08:24:33.286Z,95215.80
2018-01-30T08:27:00.812Z,95224.06
2018-01-30T08:29:28.836Z,95230.46
2018-01-30T08:31:56.622Z,95230.63
2018-01-30T08:34:24.454Z,95225.16
2018-01-30T08:36:52.318Z,95216.77
2018-01-30T08:39:19.900Z,95213.45
2018-01-30T08:41:48.131Z,95219.14
2018-01-30T08:44:15.754Z,95227.66
2018-01-30T08:46:43.336Z,95223.05
2018-01-30T08:49:10.923Z,95208.36
2018-01-30T08:51:38.568Z,95207.16
2018-01-30T08:54:06.310Z,95213.25
2018-01-30T08:56:33.901Z,95212.58
2018-01-30T08:59:01.537Z,95216.16
2018-01-30T09:01:29.055Z,95217.98
2018-01-30T09:03:57.420Z,95231.09
2018-01-30T09:06:25.061Z,95242.05
2018-01-30T09:08:52.664Z,95240.17
2018-01-30T09:11:20.252Z,95253.78
2018-01-30T09:13:47.822Z,95256.64
2018-01-30T09:16:15.507Z,95249.50
2018-01-30T09:18:43.117Z,95246.13
2018-01-30T09:21:10.749Z,95248.41
2018-01-30T09:23:38.576Z,95243.39
2018-01-30T09:26:06.169Z,95250.41
2018-01-30T09:28:33.804Z,95238.16
2018-01-30T09:31:01.392Z,95235.01
2018-01-30T09:33:28.984Z,95232.14
2018-01-30T09:35:56.746Z,95243.52
2018-01-30T09:38:24.337Z,95236.13
2018-01-30T09:40:52.011Z,95235.62
2018-01-30T09:43:19.653Z,95238.02
2018-01-30T09:45:47.171Z,95231.27
2018-01-30T09:48:14.921Z,95212.66
2018-01-30T09:50:42.606Z,95215.55
2018-01-30T09:53:10.251Z,95214.07
2018-01-30T09:55:37.888Z,95210.39
2018-01-30T09:58:06.292Z,95210.16
2018-01-30T10:00:34.036Z,95205.64
2018-01-30T10:03:01.767Z,95202.58
2018-01-30T10:05:29.452Z,95202.80
2018-01-30T10:07:57.222Z,95210.85
2018-01-30T10:10:24.986Z,95204.54
2018-01-30T10:12:52.559Z,95206.50
2018-01-30T10:15:20.106Z,95199.86
2018-01-30T10:17:48.282Z,95200.68
2018-01-30T10:20:15.909Z,95206.20
2018-01-30T10:22:43.742Z,95207.33
2018-01-30T10:25:11.342Z,95201.85
2018-01-30T10:27:39.130Z,95198.70
2018-01-30T10:30:06.733Z,95200.89
2018-01-30T10:32:34.351Z,95199.69
2018-01-30T10:35:01.981Z,95197.82
2018-01-30T10:37:29.617Z,95198.19
2018-01-30T10:39:57.208Z,95202.13
2018-01-30T10:42:24.906Z,95193.64
2018-01-30T10:44:52.528Z,95196.80
2018-01-30T10:47:20.172Z,95195.86
2018-01-30T10:49:47.840Z,95201.72
2018-01-30T10:52:15.428Z,95199.60
2018-01-30T10:54:43.072Z,95205.20
2018-01-30T10:57:10.755Z,95200.14
2018-01-30T10:59:38.347Z,95197.75
2018-01-30T11:02:05.936Z,95197.38
2018-01-30T11:04:33.580Z,95198.67
2018-01-30T11:07:01.211Z,95201.91
2018-01-30T11:09:28.779Z,95194.49
2018-01-30T11:11:56.332Z,95201.80
2018-01-30T11:14:23.856Z,95202.76
2018-01-30T11:16:51.496Z,95198.97
2018-01-30T11:19:19.100Z,95197.10
2018-01-30T11:21:46.755Z,95196.26
2018-01-30T11:24:14.447Z,95198.73
2018-01-30T11:26:41.970Z,95192.16
2018-01-30T11:29:09.557Z,95197.23
2018-01-30T11:31:37.185Z,95205.07
2018-01-30T11:34:04.776Z,95213.63
2018-01-30T11:36:52.388Z,95216.17
2018-01-30T11:39:20.036Z,95216.98
2018-01-30T11:41:47.624Z,95216.09
2018-01-30T11:44:15.147Z,95214.41
2018-01-30T11:46:42.674Z,95221.63
2018-01-30T11:49:10.917Z,95219.93
2018-01-30T11:51:38.438Z,95223.17
2018-01-30T11:54:05.966Z,95217.88
2018-01-30T11:56:33.577Z,95222.36
2018-01-30T11:59:01.106Z,95220.39
2018-01-30T12:01:28.626Z,95225.27
2018-01-30T12:03:56.150Z,95220.38
2018-01-30T12:06:23.674Z,95225.56
2018-01-30T12:08:51.380Z,95224.99
2018-01-30T12:11:18.981Z,95231.83
2018-01-30T12:13:46.579Z,95234.77
2018-01-30T12:16:14.172Z,95233.80
2018-01-30T12:18:41.813Z,95244.48
2018-01-30T12:21:09.334Z,95238.10
2018-01-30T12:23:36.854Z,95239.05
2018-01-30T12:26:04.452Z,95241.20
2018-01-30T12:28:32.036Z,95230.09
2018-01-30T12:30:59.560Z,95234.06
2018-01-30T12:33:27.147Z,95227.42
2018-01-30T12:35:54.835Z,95237.40
2018-01-30T12:38:22.357Z,95235.02
2018-01-30T12:40:49.940Z,95232.61
2018-01-30T12:43:17.506Z,95242.23
2018-01-30T12:45:45.063Z,95234.73
2018-01-30T12:48:12.583Z,95231.45
2018-01-30T12:50:40.383Z,95239.34
2018-01-30T12:53:07.914Z,95237.91
2018-01-30T12:55:35.513Z,95237.72
2018-01-30T12:58:03.149Z,95237.05
2018-01-30T13:00:30.670Z,95239.77
2018-01-30T13:02:58.199Z,95239.58
2018-01-30T13:05:26.372Z,95242.30
2018-01-30T13:07:53.965Z,95245.80
2018-01-30T13:10:21.579Z,95237.09
2018-01-30T13:12:49.188Z,95238.22
2018-01-30T13:15:16.999Z,95237.61
2018-01-30T13:17:44.522Z,95237.35
2018-01-30T13:20:12.197Z,95239.20
2018-01-30T13:22:39.750Z,95229.54
2018-01-30T13:25:07.941Z,95230.63
2018-01-30T13:27:35.559Z,95217.95
2018-01-30T13:30:03.050Z,95223.69
2018-01-30T13:32:30.573Z,95211.53
2018-01-30T13:34:58.165Z,95230.81
2018-01-30T13:37:25.771Z,95221.27
2018-01-30T13:39:53.359Z,95228.51
2018-01-30T13:42:21.170Z,95236.45
2018-01-30T13:44:48.799Z,95236.98
2018-01-30T13:47:16.322Z,95243.09
2018-01-30T13:49:43.850Z,95253.61
2018-01-30T13:52:11.439Z,95258.77
2018-01-30T13:54:39.048Z,95253.45
2018-01-30T13:57:06.694Z,95256.16
2018-01-30T13:59:34.304Z,95266.59
2018-01-30T14:02:01.905Z,95272.12
2018-01-30T14:04:29.498Z,95276.52
2018-01-30T14:06:57.088Z,95281.38
2018-01-30T14:09:24.736Z,95277.53
2018-01-30T14:11:52.388Z,95281.03
2018-01-30T14:14:19.993Z,95290.60
2018-01-30T14:16:47.512Z,95289.98
2018-01-30T14:19:15.100Z,95292.28
2018-01-30T14:21:42.692Z,95302.11
2018-01-30T14:24:10.282Z,95299.66
2018-01-30T14:26:37.802Z,95293.47
2018-01-30T14:29:05.393Z,95296.48
2018-01-30T14:31:32.914Z,95297.52
2018-01-30T14:34:00.503Z,95297.52
2018-01-30T14:36:28.183Z,95307.46
2018-01-30T14:38:55.811Z,95305.80
2018-01-30T14:41:23.465Z,95304.31
2018-01-30T14:43:51.106Z,95308.51
2018-01-30T14:46:18.748Z,95315.05
2018-01-30T14:48:46.336Z,95314.78
2018-01-30T14:51:13.859Z,95317.97
2018-01-30T14:53:41.504Z,95321.50
2018-01-30T14:56:09.162Z,95318.66
2018-01-30T14:58:36.757Z,95324.34
2018-01-30T15:01:04.407Z,95317.20
2018-01-30T15:03:32.021Z,95316.52
2018-01-30T15:05:59.636Z,95315.33
2018-01-30T15:08:27.163Z,95319.66
2018-01-30T15:10:54.685Z,95318.94
2018-01-30T15:13:22.202Z,95322.95
2018-01-30T15:15:49.807Z,95322.16
2018-01-30T15:18:17.335Z,95328.63
2018-01-30T15:20:44.941Z,95332.16
2018-01-30T15:23:12.459Z,95335.30
2018-01-30T15:25:40.020Z,95331.94
2018-01-30T15:28:07.542Z,95326.02
2018-01-30T15:30:35.133Z,95329.84
2018-01-30T15:33:02.720Z,95333.67
2018-01-30T15:35:30.365Z,95318.75
2018-01-30T15:37:57.955Z,95328.66
2018-01-30T15:40:25.642Z,95327.86
2018-01-30T15:42:53.165Z,95331.11
2018-01-30T15:45:20.702Z,95332.95
2018-01-30T15:47:48.363Z,95345.75
2018-01-30T15:50:16.012Z,95352.92
2018-01-30T15:52:43.612Z,95350.88
2018-01-30T15:55:11.135Z,95353.30
2018-01-30T15:57:38.664Z,95353.78
2018-01-30T16:00:06.251Z,95357.55
2018-01-30T16:02:33.798Z,95362.61
2018-01-30T16:05:01.383Z,95360.98
2018-01-30T16:07:28.978Z,95367.70
2018-01-30T16:09:56.572Z,95364.25
2018-01-30T16:12:24.157Z,95371.29
2018-01-30T16:14:51.808Z,95372.20
2018-01-30T16:17:19.404Z,95370.98
2018-01-30T16:19:47.044Z,95375.91
2018-01-30T16:22:14.682Z,95379.74
2018-01-30T16:24:42.336Z,95390.65
2018-01-30T16:27:09.883Z,95390.45
2018-01-30T16:29:37.413Z,95393.46
2018-01-30T16:32:05.008Z,95391.41
2018-01-30T16:34:32.568Z,95390.02
2018-01-30T16:37:00.245Z,95399.30
2018-01-30T16:39:27.895Z,95401.86
2018-01-30T16:41:55.492Z,95407.97
2018-01-30T16:44:23.022Z,95399.44
2018-01-30T16:46:50.641Z,95407.48
2018-01-30T16:49:18.296Z,95410.27
2018-01-30T16:51:45.956Z,95407.53
2018-01-30T16:54:13.480Z,95413.22
2018-01-30T16:56:41.019Z,95417.42
2018-01-30T16:59:08.621Z,95420.82
2018-01-30T17:01:36.301Z,95421.65
2018-01-30T17:04:03.925Z,95422.91
2018-01-30T17:06:31.591Z,95423.09
2018-01-30T17:08:59.205Z,95424.80
2018-01-30T17:11:26.816Z,95423.55
2018-01-30T17:13:54.440Z,95424.56
2018-01-30T17:16:22.044Z,95429.72
2018-01-30T17:18:49.700Z,95434.02
2018-01-30T17:21:17.230Z,95431.66
2018-01-30T17:23:44.902Z,95432.07
2018-01-30T17:26:12.439Z,95424.20
2018-01-30T17:28:40.096Z,95433.59
2018-01-30T17:31:07.750Z,95431.48
2018-01-30T17:33:35.362Z,95436.95
2018-01-30T17:36:02.959Z,95439.90
2018-01-30T17:38:30.608Z,95443.30
2018-01-30T17:40:58.260Z,95436.89
2018-01-30T17:43:25.888Z,95438.48
2018-01-30T17:45:53.578Z,95433.88
2018-01-30T17:48:21.106Z,95439.52
2018-01-30T17:50:48.707Z,95441.08
2018-01-30T17:53:16.234Z,95440.22
2018-01-30T17:55:43.888Z,95441.53
2018-01-30T17:58:11.554Z,95442.98
2018-01-30T18:00:39.103Z,95450.77
2018-01-30T18:03:06.692Z,95439.94
2018-01-30T18:05:34.283Z,95444.13
2018-01-30T18:08:01.798Z,95449.19
2018-01-30T18:10:29.338Z,95451.05
2018-01-30T18:12:56.939Z,95444.64
2018-01-30T18:15:24.588Z,95448.55
2018-01-30T18:17:52.115Z,95438.34
2018-01-30T18:20:19.765Z,95448.97
2018-01-30T18:22:47.421Z,95452.99
2018-01-30T18:25:15.087Z,95456.22
2018-01-30T18:27:42.691Z,95458.33
2018-01-30T18:30:10.292Z,95456.50
2018-01-30T18:32:37.819Z,95453.90
2018-01-30T18:35:05.947Z,95456.22
2018-01-30T18:37:33.884Z,95439.69
2018-01-30T18:40:01.555Z,95445.23
2018-01-30T18:42:29.151Z,95442.05
2018-01-30T18:44:56.761Z,95445.75
2018-01-30T18:47:24.366Z,95446.27
2018-01-30T18:49:52.301Z,95441.45
2018-01-30T18:52:19.948Z,95443.47
2018-01-30T18:54:47.596Z,95449.81
2018-01-30T18:57:15.244Z,95447.52
2018-01-30T18:59:42.901Z,95460.52
2018-01-30T19:02:10.492Z,95460.16
2018-01-30T19:07:10.118Z,95469.69
2018-01-30T19:09:37.749Z,95472.16
2018-01-30T19:12:05.376Z,95476.97
2018-01-30T19:14:33.028Z,95473.89
2018-01-30T19:17:00.559Z,95476.17
2018-01-30T19:19:28.155Z,95476.51
2018-01-30T19:21:55.801Z,95473.98
2018-01-30T19:24:23.461Z,95484.85
2018-01-30T19:26:51.068Z,95482.31
2018-01-30T19:29:18.668Z,95483.88
2018-01-30T19:31:46.268Z,95479.11
2018-01-30T19:34:13.878Z,95492.41
2018-01-30T19:36:41.477Z,95488.04
2018-01-30T19:39:09.071Z,95488.70
2018-01-30T19:41:36.730Z,95485.38
2018-01-30T19:44:04.389Z,95481.95
2018-01-30T19:46:31.999Z,95477.72
2018-01-30T19:48:59.589Z,95478.14
2018-01-30T19:51:27.201Z,95482.78
2018-01-30T19:53:54.729Z,95485.73
2018-01-30T19:56:22.321Z,95487.40
2018-01-30T19:58:49.959Z,95484.31
2018-01-30T20:01:17.641Z,95488.55
2018-01-30T20:03:45.178Z,95504.03
2018-01-30T20:06:12.704Z,95505.48
2018-01-30T20:08:40.352Z,95499.75
2018-01-30T20:11:07.874Z,95500.48
2018-01-30T20:13:35.519Z,95507.59
2018-01-30T20:16:03.122Z,95503.09
2018-01-30T20:18:30.730Z,95511.52
2018-01-30T20:20:58.331Z,95514.91
2018-01-30T20:23:25.921Z,95521.45
2018-01-30T20:25:53.564Z,95524.53
2018-01-30T20:28:21.171Z,95524.05
2018-01-30T20:30:48.694Z,95522.17
2018-01-30T20:33:16.349Z,95524.14
2018-01-30T20:35:43.952Z,95526.80
2018-01-30T20:38:11.596Z,95531.06
2018-01-30T20:40:39.122Z,95529.05
2018-01-30T20:43:07.554Z,95525.38
2018-01-30T20:45:35.165Z,95526.05
2018-01-30T20:48:02.761Z,95528.75
2018-01-30T20:50:30.348Z,95525.00
2018-01-30T20:52:57.944Z,95518.47
2018-01-30T20:55:25.585Z,95517.05
2018-01-30T20:57:53.179Z,95514.07
2018-01-30T21:00:20.838Z,95520.45
2018-01-30T21:02:48.432Z,95517.98
2018-01-30T21:05:16.055Z,95519.05
2018-01-30T21:07:43.709Z,95516.97
2018-01-30T21:10:11.353Z,95517.63
2018-01-30T21:12:38.936Z,95523.42
2018-01-30T21:15:06.608Z,95524.06
2018-01-30T21:17:34.194Z,95529.63
2018-01-30T21:20:01.796Z,95532.30
2018-01-30T21:22:29.444Z,95533.01
2018-01-30T21:24:57.053Z,95527.77
2018-01-30T21:27:25.494Z,95530.67
2018-01-30T21:29:53.022Z,95537.72
2018-01-30T21:32:20.663Z,95534.98
2018-01-30T21:34:48.249Z,95534.54
2018-01-30T21:37:15.847Z,95538.13
2018-01-30T21:39:43.432Z,95533.52
2018-01-30T21:42:11.085Z,95534.17
2018-01-30T21:44:38.602Z,95535.62
2018-01-30T21:47:06.119Z,95541.38
2018-01-30T21:49:33.711Z,95543.88
2018-01-30T21:52:01.411Z,95541.53
2018-01-30T21:54:29.077Z,95543.38
2018-01-30T21:56:56.598Z,95546.84
2018-01-30T21:59:24.245Z,95546.11
2018-01-30T22:01:51.892Z,95543.80
2018-01-30T22:04:19.536Z,95546.25
2018-01-30T22:06:47.176Z,95549.58
2018-01-30T22:09:14.764Z,95544.67
2018-01-30T22:11:42.287Z,95549.09
2018-01-30T22:14:09.928Z,95536.27
2018-01-30T22:16:37.519Z,95533.74
2018-01-30T22:19:05.165Z,95533.01
2018-01-30T22:21:32.688Z,95527.70
2018-01-30T22:24:00.348Z,95536.52
2018-01-30T22:26:27.936Z,95524.06
2018-01-30T22:28:55.450Z,95522.43
2018-01-30T22:31:23.100Z,95516.44
2018-01-30T22:33:50.658Z,95522.97
2018-01-30T22:36:18.176Z,95519.83
2018-01-30T22:38:45.756Z,95519.14
2018-01-30T22:41:13.279Z,95518.18
2018-01-30T22:43:40.984Z,95524.69
2018-01-30T22:46:08.564Z,95514.47
